Time;durP1;ratioP1;P1;durP2;ratioP2;P2;SDS_P1;SDS_P2;PMS_P1;PMS_P2;Temp;Humidity;BMP_temperature;BMP_pressure;BME280_temperature;BME280_humidity;BME280_pressure;Samples;Min_cycle;Max_cycle;Signal;HPM_P1;HPM_P2
2023/06/21 00:02:04;;;;;;;8.27;5.88;;;26.60;99.90;;;;;;5052775;28;20029;-60
2023/06/21 00:04:29;;;;;;;6.55;5.90;;;26.50;99.90;;;;;;5051970;28;20021;-59
2023/06/21 00:06:55;;;;;;;7.45;6.13;;;26.40;99.90;;;;;;5053579;28;20039;-59
2023/06/21 00:09:21;;;;;;;8.68;5.95;;;26.30;99.90;;;;;;5054137;28;20048;-59
2023/06/21 00:11:47;;;;;;;8.77;6.10;;;26.40;99.90;;;;;;5056924;28;20025;-59
2023/06/21 00:14:12;;;;;;;7.57;6.22;;;26.20;99.90;;;;;;5056818;28;20493;-59
2023/06/21 00:16:38;;;;;;;7.97;6.40;;;26.20;99.90;;;;;;5054569;28;20375;-60
2023/06/21 00:19:04;;;;;;;7.82;6.28;;;26.10;99.90;;;;;;5054741;28;20021;-59
2023/06/21 00:21:30;;;;;;;7.22;6.45;;;26.20;99.90;;;;;;5056283;28;20017;-59
2023/06/21 00:23:55;;;;;;;9.68;6.78;;;26.20;99.90;;;;;;5055688;28;20052;-59
2023/06/21 00:26:21;;;;;;;10.07;6.30;;;26.20;99.90;;;;;;5053701;28;20076;-59
2023/06/21 00:28:46;;;;;;;7.82;6.90;;;26.00;99.90;;;;;;5055206;28;20443;-60
2023/06/21 00:31:12;;;;;;;7.95;6.50;;;26.20;99.90;;;;;;5055458;28;20040;-59
2023/06/21 00:33:38;;;;;;;7.75;6.35;;;26.20;99.90;;;;;;5038553;28;20021;-59
2023/06/21 00:36:04;;;;;;;9.52;6.18;;;26.00;99.90;;;;;;5046064;28;20034;-59
2023/06/21 00:38:36;;;;;;;8.40;6.82;;;26.00;99.90;;;;;;5051385;28;20021;-60
2023/06/21 00:41:05;;;;;;;7.68;6.88;;;25.90;99.90;;;;;;5048321;28;20070;-60
2023/06/21 00:43:31;;;;;;;8.52;6.60;;;25.90;99.90;;;;;;5050809;28;20033;-60
2023/06/21 00:45:57;;;;;;;8.15;6.63;;;25.90;99.90;;;;;;5050768;28;20032;-59
2023/06/21 00:48:23;;;;;;;9.77;6.45;;;25.80;99.90;;;;;;5050254;28;20041;-60
2023/06/21 00:50:49;;;;;;;9.23;6.20;;;25.80;99.90;;;;;;5043733;28;20025;-60
2023/06/21 00:53:15;;;;;;;7.40;6.55;;;25.80;99.90;;;;;;5054309;28;20033;-60
2023/06/21 00:55:40;;;;;;;7.05;6.38;;;25.60;99.90;;;;;;5052849;28;20052;-60
2023/06/21 00:58:08;;;;;;;8.90;6.30;;;25.60;99.90;;;;;;5054292;28;20478;-59
2023/06/21 01:00:35;;;;;;;10.20;6.25;;;25.60;99.90;;;;;;5053127;28;20021;-59
2023/06/21 01:03:00;;;;;;;9.00;6.57;;;25.70;99.90;;;;;;5053103;28;20040;-59
2023/06/21 01:05:30;;;;;;;10.20;6.13;;;25.60;99.90;;;;;;5053609;28;20024;-60
2023/06/21 01:08:31;;;;;;;8.60;6.63;;;25.60;99.90;;;;;;5054618;28;20498;-60
2023/06/21 01:11:12;;;;;;;9.25;6.45;;;25.50;99.90;;;;;;5031893;28;20039;-60
2023/06/21 01:14:09;;;;;;;8.23;6.32;;;25.40;99.90;;;;;;5045954;28;20494;-60
2023/06/21 01:16:42;;;;;;;9.80;7.18;;;25.60;99.90;;;;;;5054399;28;20025;-60
2023/06/21 01:19:29;;;;;;;6.88;6.25;;;25.50;99.90;;;;;;5055375;28;20037;-59
2023/06/21 01:21:57;;;;;;;8.75;6.78;;;25.30;99.90;;;;;;5054081;28;20037;-60
2023/06/21 01:24:51;;;;;;;7.80;6.60;;;25.30;99.90;;;;;;5047720;28;20071;-60
2023/06/21 01:27:37;;;;;;;6.97;6.28;;;25.40;99.90;;;;;;5050344;28;20150;-60
2023/06/21 01:30:04;;;;;;;10.00;7.18;;;25.40;99.90;;;;;;5049271;28;20486;-60
2023/06/21 01:32:31;;;;;;;8.18;6.15;;;25.40;99.90;;;;;;5040118;28;20025;-60
2023/06/21 01:34:57;;;;;;;8.68;6.50;;;25.40;99.90;;;;;;5051812;28;20053;-59
2023/06/21 01:37:23;;;;;;;9.38;6.32;;;25.30;99.90;;;;;;5041075;28;20025;-59
2023/06/21 01:39:50;;;;;;;8.20;5.53;;;25.30;99.90;;;;;;5042930;28;20029;-60
2023/06/21 01:42:16;;;;;;;10.80;6.25;;;25.40;99.90;;;;;;5053926;28;20375;-60
2023/06/21 01:44:42;;;;;;;9.48;6.38;;;25.50;99.90;;;;;;5052869;28;20017;-61
2023/06/21 01:47:09;;;;;;;10.30;6.65;;;25.40;99.90;;;;;;5053962;28;20466;-60
2023/06/21 01:49:35;;;;;;;9.48;6.97;;;25.40;99.90;;;;;;5053010;28;20029;-61
2023/06/21 01:52:04;;;;;;;8.95;6.05;;;25.30;99.90;;;;;;5053852;28;20029;-61
2023/06/21 01:54:33;;;;;;;7.85;5.38;;;25.40;99.90;;;;;;5050508;28;20032;-61
2023/06/21 01:57:00;;;;;;;8.73;6.45;;;25.40;99.90;;;;;;5053829;28;20029;-60
2023/06/21 01:59:27;;;;;;;6.68;6.00;;;25.30;99.90;;;;;;5051222;28;20407;-61
2023/06/21 02:01:54;;;;;;;6.80;6.10;;;25.20;99.90;;;;;;5054153;28;20017;-61
2023/06/21 02:04:21;;;;;;;6.82;6.00;;;25.20;99.90;;;;;;5052587;28;20032;-61
2023/06/21 02:06:48;;;;;;;6.63;6.03;;;25.20;99.90;;;;;;5053334;28;20056;-61
2023/06/21 02:09:14;;;;;;;7.80;5.93;;;25.00;99.90;;;;;;5053712;28;20102;-61
2023/06/21 02:11:41;;;;;;;7.07;6.13;;;25.00;99.90;;;;;;5051747;28;20017;-60
2023/06/21 02:14:07;;;;;;;9.77;6.28;;;25.00;99.90;;;;;;5053661;28;20487;-60
2023/06/21 02:16:33;;;;;;;8.98;6.30;;;25.00;99.90;;;;;;5052352;28;20055;-60
2023/06/21 02:18:59;;;;;;;8.05;5.82;;;24.80;99.90;;;;;;5052574;28;20033;-61
2023/06/21 02:21:24;;;;;;;7.47;5.97;;;25.00;99.90;;;;;;5052018;28;20493;-61
2023/06/21 02:23:50;;;;;;;10.05;6.32;;;24.90;99.90;;;;;;5052699;28;20029;-61
2023/06/21 02:26:17;;;;;;;6.25;5.65;;;24.90;99.90;;;;;;5053153;28;20584;-61
2023/06/21 02:28:43;;;;;;;9.95;5.93;;;25.00;99.90;;;;;;5052868;28;20068;-61
2023/06/21 02:31:09;;;;;;;7.63;6.63;;;25.00;99.90;;;;;;5051428;28;20032;-61
2023/06/21 02:33:35;;;;;;;7.07;6.15;;;25.00;99.90;;;;;;5049784;28;20029;-61
2023/06/21 02:36:00;;;;;;;9.27;6.32;;;25.00;99.90;;;;;;5053385;28;20109;-60
2023/06/21 02:38:26;;;;;;;6.72;5.85;;;24.90;99.90;;;;;;5046857;28;20501;-61
2023/06/21 02:40:52;;;;;;;6.78;6.07;;;25.00;99.90;;;;;;5053486;28;20025;-61
2023/06/21 02:43:18;;;;;;;6.68;5.82;;;24.90;99.90;;;;;;5052194;28;20025;-61
2023/06/21 02:45:45;;;;;;;8.25;6.15;;;24.80;99.90;;;;;;5053209;28;20049;-61
2023/06/21 02:48:11;;;;;;;7.03;6.05;;;24.80;99.90;;;;;;5050513;28;20048;-61
2023/06/21 02:50:36;;;;;;;7.35;6.43;;;24.80;99.90;;;;;;5051377;28;20025;-61
2023/06/21 02:53:02;;;;;;;6.90;6.20;;;24.60;99.90;;;;;;5052401;28;20033;-61
2023/06/21 02:55:28;;;;;;;8.07;6.15;;;24.50;99.90;;;;;;5040856;28;20025;-61
2023/06/21 02:57:54;;;;;;;7.93;6.65;;;24.70;99.90;;;;;;5052922;28;20390;-60
2023/06/21 03:00:27;;;;;;;6.93;5.63;;;24.50;99.90;;;;;;5052175;28;20108;-61
2023/06/21 03:03:00;;;;;;;8.70;5.88;;;24.60;99.90;;;;;;5050297;28;20021;-61
2023/06/21 03:05:29;;;;;;;8.02;5.47;;;24.50;99.90;;;;;;5052450;28;20375;-61
2023/06/21 03:07:56;;;;;;;6.18;5.57;;;24.50;99.90;;;;;;5049311;28;20034;-60
2023/06/21 03:10:22;;;;;;;6.93;5.50;;;24.50;99.90;;;;;;5052894;28;20059;-60
2023/06/21 03:12:47;;;;;;;6.05;5.50;;;24.30;99.90;;;;;;5051636;28;20041;-61
2023/06/21 03:15:13;;;;;;;6.53;5.90;;;24.40;99.90;;;;;;5052736;28;20032;-61
2023/06/21 03:17:40;;;;;;;6.88;5.70;;;24.60;99.90;;;;;;5051507;28;20067;-61
2023/06/21 03:20:11;;;;;;;6.63;5.97;;;24.60;99.90;;;;;;5041352;28;20411;-60
2023/06/21 03:22:37;;;;;;;6.68;5.82;;;24.50;99.90;;;;;;5052096;28;20064;-60
2023/06/21 03:25:03;;;;;;;6.53;5.90;;;24.40;99.90;;;;;;5051215;28;20059;-60
2023/06/21 03:27:29;;;;;;;5.93;5.38;;;24.50;99.90;;;;;;5052337;28;20033;-60
2023/06/21 03:29:55;;;;;;;7.97;6.00;;;24.50;99.90;;;;;;5051511;28;20021;-60
2023/06/21 03:32:20;;;;;;;7.05;5.15;;;24.50;99.90;;;;;;5048804;28;20037;-60
2023/06/21 03:34:46;;;;;;;7.75;6.07;;;24.50;99.90;;;;;;5050466;28;20546;-60
2023/06/21 03:37:12;;;;;;;7.85;5.68;;;24.40;99.90;;;;;;5051817;28;20043;-60
2023/06/21 03:39:38;;;;;;;7.22;5.70;;;24.50;99.90;;;;;;5052090;28;20532;-60
2023/06/21 03:42:04;;;;;;;5.70;5.10;;;24.40;99.90;;;;;;5047629;28;20033;-60
2023/06/21 03:44:29;;;;;;;5.65;5.15;;;24.40;99.90;;;;;;5053170;28;20029;-60
2023/06/21 03:46:55;;;;;;;7.38;5.75;;;24.40;99.90;;;;;;5051775;28;20090;-60
2023/06/21 03:49:22;;;;;;;8.35;5.70;;;24.50;99.90;;;;;;5052995;28;20039;-60
2023/06/21 03:51:48;;;;;;;7.95;6.10;;;24.50;99.90;;;;;;5051561;28;20063;-60
2023/06/21 03:54:13;;;;;;;5.55;5.03;;;24.50;99.90;;;;;;5052100;28;20427;-60
2023/06/21 03:56:39;;;;;;;8.27;5.65;;;24.60;99.90;;;;;;5051083;28;20108;-60
2023/06/21 03:59:05;;;;;;;5.88;5.13;;;24.50;99.90;;;;;;5051651;28;20057;-60
2023/06/21 04:01:30;;;;;;;9.77;5.85;;;24.50;99.90;;;;;;5052176;28;20021;-60
2023/06/21 04:03:56;;;;;;;6.22;5.63;;;24.50;99.90;;;;;;5052960;28;20025;-60
2023/06/21 04:06:22;;;;;;;8.70;6.40;;;24.60;99.90;;;;;;5051787;28;20116;-60
2023/06/21 04:08:48;;;;;;;7.60;5.97;;;24.60;99.90;;;;;;5051798;28;20041;-60
2023/06/21 04:11:14;;;;;;;6.28;5.55;;;24.60;99.90;;;;;;5049659;28;20518;-59
2023/06/21 04:13:40;;;;;;;6.05;5.55;;;24.40;99.90;;;;;;5051663;28;20115;-59
2023/06/21 04:16:06;;;;;;;6.18;5.57;;;24.60;99.90;;;;;;5040462;28;20465;-59
2023/06/21 04:18:32;;;;;;;6.72;5.68;;;24.60;99.90;;;;;;5053049;28;20475;-59
2023/06/21 04:20:58;;;;;;;7.50;5.65;;;24.70;99.90;;;;;;5051706;28;20025;-59
2023/06/21 04:23:26;;;;;;;6.68;5.43;;;24.80;99.90;;;;;;5052801;28;20075;-59
2023/06/21 04:25:52;;;;;;;7.43;5.68;;;24.80;99.90;;;;;;5050302;28;20045;-59
2023/06/21 04:28:18;;;;;;;6.78;6.07;;;24.90;99.90;;;;;;5052757;28;20037;-59
2023/06/21 04:30:43;;;;;;;8.70;5.97;;;24.90;99.90;;;;;;5048913;28;20032;-59
2023/06/21 04:33:09;;;;;;;7.68;5.65;;;24.80;99.90;;;;;;5052829;28;20037;-59
2023/06/21 04:35:35;;;;;;;6.45;5.85;;;25.00;99.90;;;;;;5052617;28;20386;-59
2023/06/21 04:38:01;;;;;;;10.38;6.00;;;24.80;99.90;;;;;;5052758;28;20048;-60
2023/06/21 04:40:26;;;;;;;8.20;5.85;;;24.80;99.90;;;;;;5051500;28;20048;-59
2023/06/21 04:42:55;;;;;;;6.30;5.70;;;24.80;99.90;;;;;;5050652;28;20110;-59
2023/06/21 04:45:21;;;;;;;7.47;5.40;;;24.80;99.90;;;;;;5048486;28;20029;-59
2023/06/21 04:47:47;;;;;;;6.50;5.80;;;24.90;99.90;;;;;;5046389;28;20045;-60
2023/06/21 04:50:14;;;;;;;8.27;6.10;;;24.90;99.90;;;;;;5044304;28;20445;-60
2023/06/21 04:52:39;;;;;;;8.40;6.05;;;24.80;99.90;;;;;;5052646;28;20029;-61
2023/06/21 04:55:06;;;;;;;8.02;5.55;;;24.80;99.90;;;;;;5055254;28;20083;-61
2023/06/21 04:57:32;;;;;;;6.93;5.65;;;24.80;99.90;;;;;;5056210;28;20467;-60
2023/06/21 04:59:58;;;;;;;7.63;5.70;;;24.60;99.90;;;;;;5052757;28;20037;-61
2023/06/21 05:02:24;;;;;;;7.80;5.85;;;24.50;99.90;;;;;;5056103;28;20375;-61
2023/06/21 05:04:50;;;;;;;6.50;5.80;;;24.70;99.90;;;;;;5056284;28;20035;-61
2023/06/21 05:07:16;;;;;;;8.30;5.75;;;24.60;99.90;;;;;;5055183;28;20574;-61
2023/06/21 05:09:42;;;;;;;7.55;5.65;;;24.60;99.90;;;;;;5056181;28;20024;-61
2023/06/21 05:12:08;;;;;;;9.05;6.03;;;24.60;99.90;;;;;;5054680;28;20086;-59
2023/06/21 05:14:34;;;;;;;6.82;6.13;;;24.70;99.90;;;;;;5055904;28;20065;-60
2023/06/21 05:17:00;;;;;;;6.82;5.65;;;24.50;99.90;;;;;;5052436;28;20419;-60
2023/06/21 05:19:25;;;;;;;6.97;6.03;;;24.50;99.90;;;;;;5055707;28;20025;-60
2023/06/21 05:21:57;;;;;;;6.95;5.75;;;24.60;99.90;;;;;;5052948;28;20025;-59
2023/06/21 05:24:23;;;;;;;8.80;6.00;;;24.70;99.90;;;;;;5055517;28;20032;-59
2023/06/21 05:26:49;;;;;;;7.03;6.30;;;24.60;99.90;;;;;;5053161;28;20073;-59
2023/06/21 05:29:14;;;;;;;7.90;5.95;;;24.60;99.90;;;;;;5049126;28;20398;-60
2023/06/21 05:31:43;;;;;;;7.50;5.22;;;24.70;99.90;;;;;;5055780;28;20036;-60
2023/06/21 05:34:09;;;;;;;6.30;5.70;;;24.70;99.90;;;;;;5054298;28;20064;-60
2023/06/21 05:36:35;;;;;;;8.68;6.05;;;24.70;99.90;;;;;;5053174;28;20494;-60
2023/06/21 05:39:03;;;;;;;8.25;5.95;;;24.80;99.90;;;;;;5054109;28;20037;-60
2023/06/21 05:41:29;;;;;;;7.80;6.50;;;24.90;99.90;;;;;;5055662;28;20060;-60
2023/06/21 05:43:54;;;;;;;8.52;6.25;;;25.00;99.90;;;;;;5054097;28;20053;-59
2023/06/21 05:46:20;;;;;;;6.75;6.03;;;25.10;99.90;;;;;;5055241;28;20511;-59
2023/06/21 05:48:45;;;;;;;7.38;6.07;;;25.00;99.90;;;;;;5052142;28;20048;-60
2023/06/21 05:51:11;;;;;;;7.97;5.80;;;25.10;99.90;;;;;;5054728;28;20396;-60
2023/06/21 05:53:37;;;;;;;7.10;5.40;;;25.00;99.90;;;;;;5054727;28;20509;-60
2023/06/21 05:56:02;;;;;;;8.25;5.47;;;25.10;99.90;;;;;;5051897;28;20017;-60
2023/06/21 05:58:29;;;;;;;7.78;5.50;;;25.10;99.90;;;;;;5053845;28;20506;-59
2023/06/21 06:00:56;;;;;;;9.80;6.07;;;25.00;99.90;;;;;;5055229;28;20025;-60
2023/06/21 06:03:21;;;;;;;9.98;5.97;;;25.10;99.90;;;;;;5053992;28;20045;-59
2023/06/21 06:05:47;;;;;;;9.23;6.00;;;25.20;99.90;;;;;;5052858;28;20028;-60
2023/06/21 06:08:13;;;;;;;9.38;6.10;;;25.10;99.90;;;;;;5054848;28;20478;-60
2023/06/21 06:10:39;;;;;;;7.47;5.35;;;25.20;99.90;;;;;;5052637;28;20055;-60
2023/06/21 06:13:04;;;;;;;10.55;5.68;;;25.30;99.90;;;;;;5054114;28;20040;-60
2023/06/21 06:15:30;;;;;;;10.82;6.32;;;25.40;99.90;;;;;;5054584;28;20017;-59
2023/06/21 06:17:56;;;;;;;9.68;6.05;;;25.40;99.90;;;;;;5053659;28;20494;-60
2023/06/21 06:20:21;;;;;;;9.70;5.97;;;25.50;99.90;;;;;;5052930;28;20441;-60
2023/06/21 06:22:47;;;;;;;9.40;5.55;;;25.60;99.90;;;;;;5053571;28;20068;-60
2023/06/21 06:25:13;;;;;;;10.20;5.90;;;25.60;99.90;;;;;;5050599;28;20033;-60
2023/06/21 06:27:39;;;;;;;7.05;5.72;;;25.60;99.90;;;;;;5054607;28;20025;-60
2023/06/21 06:30:05;;;;;;;8.80;5.47;;;25.50;99.90;;;;;;5046442;28;20038;-60
2023/06/21 06:32:31;;;;;;;8.75;5.30;;;25.60;99.90;;;;;;5045804;28;20486;-59
2023/06/21 06:34:56;;;;;;;10.93;6.10;;;25.60;99.90;;;;;;5052878;28;20036;-59
2023/06/21 06:37:24;;;;;;;7.40;5.65;;;25.60;99.90;;;;;;5053486;28;20471;-60
2023/06/21 06:39:54;;;;;;;8.65;5.15;;;25.70;99.90;;;;;;5046332;28;20032;-60
2023/06/21 06:42:20;;;;;;;7.85;5.45;;;25.70;99.90;;;;;;5051478;28;20087;-60
2023/06/21 06:44:46;;;;;;;8.63;5.68;;;25.90;99.90;;;;;;5054059;28;20371;-60
2023/06/21 06:47:12;;;;;;;12.80;4.95;;;25.90;99.90;;;;;;5052875;28;20017;-60
2023/06/21 06:49:38;;;;;;;7.03;5.15;;;26.00;99.90;;;;;;5054007;28;20505;-59
2023/06/21 06:52:05;;;;;;;7.95;5.10;;;26.00;99.90;;;;;;5048624;28;20026;-60
2023/06/21 06:54:31;;;;;;;11.32;5.13;;;26.10;99.90;;;;;;5049049;28;20102;-60
2023/06/21 06:56:56;;;;;;;7.72;5.47;;;26.10;99.90;;;;;;5040978;28;20052;-59
2023/06/21 06:59:22;;;;;;;11.75;5.15;;;26.20;99.90;;;;;;5050504;28;20051;-60
2023/06/21 07:01:48;;;;;;;13.35;6.20;;;26.30;99.90;;;;;;5050217;28;20080;-65
2023/06/21 07:04:14;;;;;;;8.30;4.93;;;26.20;99.90;;;;;;5049366;28;20425;-65
2023/06/21 07:06:41;;;;;;;8.40;5.07;;;26.30;99.90;;;;;;5049503;28;20029;-64
2023/06/21 07:09:08;;;;;;;8.63;5.13;;;26.50;99.90;;;;;;5039799;28;20059;-68
2023/06/21 07:11:34;;;;;;;8.80;6.15;;;26.50;99.90;;;;;;5046842;28;20024;-74
2023/06/21 07:14:00;;;;;;;10.07;5.80;;;26.50;99.90;;;;;;5045019;28;20029;-74
2023/06/21 07:16:25;;;;;;;6.78;4.63;;;26.50;99.90;;;;;;5053333;28;20032;-74
2023/06/21 07:18:51;;;;;;;6.95;4.80;;;26.60;99.90;;;;;;5051251;28;20505;-74
2023/06/21 07:21:18;;;;;;;7.65;4.60;;;26.60;99.90;;;;;;5043046;28;20021;-74
2023/06/21 07:23:44;;;;;;;7.28;4.60;;;26.70;99.90;;;;;;5054138;28;20017;-68
2023/06/21 07:26:09;;;;;;;7.47;4.78;;;26.80;99.90;;;;;;5051046;28;20111;-69
2023/06/21 07:28:35;;;;;;;8.40;5.10;;;26.80;99.90;;;;;;5044527;28;20064;-69
2023/06/21 07:31:03;;;;;;;10.80;5.15;;;26.80;99.90;;;;;;5049136;28;20383;-69
2023/06/21 07:33:28;;;;;;;10.18;4.93;;;26.90;99.90;;;;;;5038385;28;20027;-69
2023/06/21 07:35:54;;;;;;;11.50;4.80;;;26.90;99.90;;;;;;5049023;28;20032;-69
2023/06/21 07:38:20;;;;;;;8.00;4.70;;;26.90;99.90;;;;;;5053079;28;20032;-69
2023/06/21 07:40:45;;;;;;;14.57;4.95;;;26.90;99.90;;;;;;5051322;28;20037;-69
2023/06/21 07:43:11;;;;;;;6.50;5.22;;;27.00;99.90;;;;;;5051868;28;20502;-69
2023/06/21 07:45:36;;;;;;;10.90;5.13;;;27.10;99.90;;;;;;5053065;28;20047;-69
2023/06/21 07:48:02;;;;;;;6.93;5.10;;;27.10;99.90;;;;;;5051780;28;20044;-69
2023/06/21 07:50:28;;;;;;;9.82;4.53;;;27.20;99.90;;;;;;5047313;28;20036;-70
2023/06/21 07:52:53;;;;;;;6.70;4.55;;;27.20;99.90;;;;;;5053354;28;20112;-69
2023/06/21 07:55:19;;;;;;;6.45;4.72;;;27.30;99.90;;;;;;5051873;28;20360;-69
2023/06/21 07:57:45;;;;;;;6.22;4.63;;;27.30;99.90;;;;;;5053174;28;20360;-69
2023/06/21 08:00:11;;;;;;;8.73;4.68;;;27.40;99.90;;;;;;5050548;28;20033;-70
2023/06/21 08:02:44;;;;;;;6.18;4.80;;;27.50;99.90;;;;;;5051812;28;20482;-69
2023/06/21 08:05:09;;;;;;;8.23;5.70;;;27.50;99.90;;;;;;5051031;28;20421;-69
2023/06/21 08:07:35;;;;;;;9.90;4.97;;;27.60;99.90;;;;;;5052662;28;20127;-69
2023/06/21 08:10:01;;;;;;;5.70;4.80;;;27.50;99.90;;;;;;5048940;28;20060;-71
2023/06/21 08:12:27;;;;;;;9.57;5.20;;;27.60;99.90;;;;;;5047795;28;20079;-64
2023/06/21 08:14:52;;;;;;;6.20;5.10;;;27.60;99.90;;;;;;5044958;28;20022;-64
2023/06/21 08:17:18;;;;;;;10.38;4.75;;;27.70;99.90;;;;;;5039754;28;20032;-64
2023/06/21 08:19:43;;;;;;;5.65;5.15;;;27.70;99.90;;;;;;5036511;28;20482;-68
2023/06/21 08:22:09;;;;;;;8.48;4.97;;;27.80;99.90;;;;;;5042951;28;20025;-65
2023/06/21 08:24:35;;;;;;;5.72;4.68;;;27.80;99.90;;;;;;5050104;28;20119;-65
2023/06/21 08:27:01;;;;;;;6.68;4.80;;;27.80;99.90;;;;;;5048737;28;20505;-67
2023/06/21 08:29:26;;;;;;;7.28;4.88;;;27.90;99.90;;;;;;5051729;28;20048;-70
2023/06/21 08:31:52;;;;;;;5.47;4.70;;;27.80;99.90;;;;;;5053868;28;20028;-69
2023/06/21 08:34:17;;;;;;;6.00;4.25;;;27.90;99.90;;;;;;5055048;28;20035;-63
2023/06/21 08:36:43;;;;;;;5.82;4.72;;;28.00;99.90;;;;;;5043105;28;20429;-68
2023/06/21 08:39:09;;;;;;;8.48;4.95;;;28.00;99.90;;;;;;5055294;28;20201;-67
2023/06/21 08:41:39;;;;;;;5.97;4.97;;;28.10;99.90;;;;;;5052499;28;20029;-67
2023/06/21 08:44:04;;;;;;;8.85;5.03;;;28.10;99.90;;;;;;5054098;28;20029;-67
2023/06/21 08:46:34;;;;;;;8.02;4.55;;;28.20;99.90;;;;;;5056033;28;20418;-63
2023/06/21 08:49:04;;;;;;;7.65;4.70;;;28.20;99.90;;;;;;5054731;28;20082;-63
2023/06/21 08:51:30;;;;;;;8.57;4.35;;;28.20;99.90;;;;;;5056420;28;20112;-63
2023/06/21 08:54:06;;;;;;;9.70;5.32;;;28.40;99.90;;;;;;5053145;28;20025;-60
2023/06/21 08:56:40;;;;;;;6.93;5.20;;;28.40;99.90;;;;;;5056189;28;20463;-62
2023/06/21 08:59:07;;;;;;;;;;;28.40;99.90;;;;;;5051761;28;20029;-64
2023/06/21 09:01:43;;;;;;;9.95;5.50;;;28.30;99.90;;;;;;5054825;28;20320;-74
2023/06/21 09:04:14;;;;;;;10.73;4.93;;;28.50;99.90;;;;;;5047969;28;20033;-78
2023/06/21 09:06:42;;;;;;;6.00;4.88;;;28.50;99.90;;;;;;5054750;28;20436;-76
2023/06/21 09:09:09;;;;;;;7.10;4.32;;;28.60;99.90;;;;;;5051697;28;20494;-75
2023/06/21 09:11:36;;;;;;;6.88;4.93;;;28.50;99.90;;;;;;5053781;28;20056;-65
2023/06/21 09:14:02;;;;;;;8.07;5.15;;;28.60;99.90;;;;;;5046502;28;20030;-70
2023/06/21 09:16:28;;;;;;;5.95;5.30;;;28.70;99.90;;;;;;5052926;28;20017;-67
2023/06/21 09:18:54;;;;;;;7.22;4.35;;;28.70;99.90;;;;;;5041894;28;20025;-67
2023/06/21 09:21:21;;;;;;;5.60;5.00;;;28.70;99.90;;;;;;5055036;28;20029;-71
2023/06/21 09:23:47;;;;;;;4.82;4.35;;;28.90;99.90;;;;;;5052432;28;20032;-70
2023/06/21 09:26:12;;;;;;;6.75;4.93;;;28.80;99.90;;;;;;5052802;28;20041;-79
2023/06/21 09:28:38;;;;;;;5.53;4.72;;;28.90;99.90;;;;;;5050446;28;20068;-69
2023/06/21 09:31:04;;;;;;;7.35;5.50;;;29.00;99.90;;;;;;5053758;28;20386;-64
2023/06/21 09:33:29;;;;;;;6.85;4.90;;;29.00;99.90;;;;;;5054016;28;20036;-65
2023/06/21 09:35:56;;;;;;;6.45;5.25;;;29.20;99.90;;;;;;5057375;28;20080;-75
2023/06/21 09:38:32;;;;;;;5.47;4.85;;;29.10;99.90;;;;;;5050660;28;20029;-72
2023/06/21 09:40:58;;;;;;;7.15;4.40;;;29.30;99.90;;;;;;5053090;28;20114;-69
2023/06/21 09:43:24;;;;;;;8.82;5.90;;;29.40;99.90;;;;;;5054944;28;20064;-72
2023/06/21 09:45:59;;;;;;;5.88;5.00;;;29.50;99.90;;;;;;5053908;28;20025;-79
2023/06/21 09:48:25;;;;;;;7.95;4.85;;;29.50;99.90;;;;;;5054869;28;20504;-75
2023/06/21 09:50:54;;;;;;;10.40;5.30;;;29.70;99.90;;;;;;5055738;28;20025;-74
2023/06/21 09:53:26;;;;;;;8.25;5.22;;;29.80;99.90;;;;;;5047898;28;20108;-77
2023/06/21 09:55:52;;;;;;;6.43;5.20;;;30.00;99.90;;;;;;5054202;28;20029;-76
2023/06/21 09:58:17;;;;;;;6.13;4.82;;;30.00;99.90;;;;;;5056375;28;20035;-67
2023/06/21 10:00:43;;;;;;;7.65;5.22;;;30.10;99.90;;;;;;5051870;28;20021;-73
2023/06/21 10:03:09;;;;;;;7.13;4.70;;;30.10;99.90;;;;;;5054947;28;20017;-71
2023/06/21 10:05:35;;;;;;;10.23;5.50;;;30.00;99.90;;;;;;5051964;28;20021;-74
2023/06/21 10:08:04;;;;;;;6.75;4.93;;;30.10;99.90;;;;;;5056705;28;20056;-65
2023/06/21 10:10:33;;;;;;;9.43;5.93;;;30.20;99.90;;;;;;5053576;28;20056;-64
2023/06/21 10:12:58;;;;;;;5.88;5.38;;;30.30;99.90;;;;;;5054893;28;20029;-66
2023/06/21 10:15:24;;;;;;;5.18;4.72;;;30.20;99.90;;;;;;5039558;28;20025;-69
2023/06/21 10:17:52;;;;;;;9.43;5.68;;;30.40;99.90;;;;;;5053545;28;20040;-65
2023/06/21 10:20:17;;;;;;;7.15;5.53;;;30.50;99.90;;;;;;5052710;28;20474;-66
2023/06/21 10:22:51;;;;;;;6.38;4.85;;;30.40;99.90;;;;;;5053575;28;20115;-73
2023/06/21 10:25:22;;;;;;;6.65;5.18;;;30.40;99.90;;;;;;5037396;28;20076;-69
2023/06/21 10:27:51;;;;;;;7.20;5.05;;;30.50;99.90;;;;;;5042438;28;20037;-72
2023/06/21 10:30:19;;;;;;;8.20;5.40;;;30.50;99.90;;;;;;5052405;28;20111;-71
2023/06/21 10:32:47;;;;;;;8.35;5.32;;;30.80;99.90;;;;;;5054330;28;20386;-71
2023/06/21 10:35:19;;;;;;;7.53;5.60;;;30.80;99.90;;;;;;5052483;28;20091;-70
2023/06/21 10:37:50;;;;;;;6.10;5.40;;;30.80;99.90;;;;;;5041827;28;20029;-70
2023/06/21 10:40:17;;;;;;;7.85;6.18;;;31.10;99.90;;;;;;5051741;28;20370;-70
2023/06/21 10:42:44;;;;;;;7.93;5.30;;;31.10;99.90;;;;;;5051335;28;20028;-72
2023/06/21 10:45:11;;;;;;;9.23;6.10;;;30.90;99.90;;;;;;5051254;28;20390;-71
2023/06/21 10:47:40;;;;;;;6.40;5.78;;;30.90;99.90;;;;;;5054447;28;20082;-68
2023/06/21 10:50:11;;;;;;;8.88;6.40;;;31.10;99.90;;;;;;5049035;28;20490;-70
2023/06/21 10:52:38;;;;;;;7.75;6.00;;;31.10;99.90;;;;;;5053548;28;20086;-72
2023/06/21 10:55:04;;;;;;;9.30;6.28;;;31.40;99.90;;;;;;5057483;28;20043;-64
2023/06/21 10:57:33;;;;;;;6.20;5.60;;;31.70;99.90;;;;;;5052893;28;20052;-69
2023/06/21 11:00:05;;;;;;;6.63;5.57;;;31.60;99.90;;;;;;5048904;28;20369;-68
2023/06/21 11:02:32;;;;;;;8.77;5.90;;;31.60;99.90;;;;;;5053917;28;20025;-71
2023/06/21 11:05:23;;;;;;;9.00;4.90;;;31.70;99.90;;;;;;5056399;28;20107;-79
2023/06/21 11:07:50;;;;;;;8.13;5.80;;;31.80;99.90;;;;;;5049868;28;20160;-77
2023/06/21 11:10:19;;;;;;;6.38;5.25;;;31.70;99.90;;;;;;5044323;28;20444;-72
2023/06/21 11:12:45;;;;;;;5.50;5.00;;;31.90;99.90;;;;;;5054292;28;20024;-72
2023/06/21 11:15:21;;;;;;;8.35;4.63;;;32.00;99.90;;;;;;5053577;28;20017;-70
2023/06/21 11:17:54;;;;;;;6.13;5.53;;;32.10;99.90;;;;;;5050546;28;20073;-69
2023/06/21 11:20:22;;;;;;;5.65;4.88;;;33.30;99.90;;;;;;5050468;28;20043;-68
2023/06/21 11:22:59;;;;;;;8.68;6.15;;;35.30;99.90;;;;;;5056792;28;20024;-76
2023/06/21 11:25:25;;;;;;;6.28;4.80;;;36.90;99.90;;;;;;5053329;28;20041;-71
2023/06/21 11:28:19;;;;;;;7.38;6.05;;;38.00;99.90;;;;;;5056726;28;20080;-68
2023/06/21 11:31:01;;;;;;;5.15;4.75;;;39.50;99.90;;;;;;5044722;28;20052;-63
2023/06/21 11:33:30;;;;;;;6.07;5.40;;;40.40;99.90;;;;;;5053912;28;20075;-65
2023/06/21 11:36:06;;;;;;;6.45;5.70;;;40.60;99.90;;;;;;5053423;28;20445;-64
2023/06/21 11:38:33;;;;;;;5.95;5.38;;;41.30;99.90;;;;;;5054231;28;20025;-72
2023/06/21 11:41:01;;;;;;;6.25;5.63;;;40.60;99.90;;;;;;5049778;28;20029;-72
2023/06/21 11:43:27;;;;;;;6.53;5.28;;;41.90;99.90;;;;;;5049880;28;20479;-65
2023/06/21 11:46:02;;;;;;;7.93;6.10;;;41.70;99.90;;;;;;5040156;28;20060;-65
2023/06/21 11:48:29;;;;;;;7.63;5.70;;;41.80;99.90;;;;;;5050126;28;20035;-65
2023/06/21 11:51:07;;;;;;;6.20;4.82;;;41.90;99.90;;;;;;5051299;28;20106;-73
2023/06/21 11:53:40;;;;;;;10.73;6.10;;;41.90;99.90;;;;;;5048544;28;20021;-72
2023/06/21 11:56:08;;;;;;;6.25;5.55;;;41.10;99.90;;;;;;5052461;28;20075;-64
2023/06/21 11:58:35;;;;;;;6.30;5.80;;;40.40;99.90;;;;;;5052268;28;20107;-67
2023/06/21 12:01:01;;;;;;;7.95;6.65;;;40.90;99.90;;;;;;5046738;28;20033;-69
2023/06/21 12:03:27;;;;;;;7.90;6.00;;;42.00;99.90;;;;;;5050113;28;20025;-66
2023/06/21 12:06:01;;;;;;;9.82;7.60;;;41.30;99.90;;;;;;5052871;28;20029;-69
2023/06/21 12:08:32;;;;;;;6.28;5.78;;;40.90;99.90;;;;;;5052001;28;20040;-69
2023/06/21 12:11:06;;;;;;;8.43;6.22;;;39.80;99.90;;;;;;5050607;28;20039;-72
2023/06/21 12:13:33;;;;;;;6.32;5.78;;;39.20;99.90;;;;;;5052034;28;20071;-63
2023/06/21 12:16:00;;;;;;;9.40;6.10;;;39.40;99.90;;;;;;5049751;28;20483;-67
2023/06/21 12:18:28;;;;;;;7.22;6.63;;;39.60;99.90;;;;;;5048544;28;20028;-61
2023/06/21 12:20:54;;;;;;;6.20;5.80;;;39.50;99.90;;;;;;5049582;28;20017;-61
2023/06/21 12:23:21;;;;;;;7.53;6.13;;;39.20;99.90;;;;;;5052814;28;20032;-60
2023/06/21 12:25:58;;;;;;;8.23;5.88;;;38.90;99.90;;;;;;5048686;28;20132;-60
2023/06/21 12:28:24;;;;;;;8.40;6.07;;;38.40;99.90;;;;;;5048956;28;20041;-60
2023/06/21 12:30:51;;;;;;;7.63;6.30;;;37.30;99.90;;;;;;5046049;28;20028;-61
2023/06/21 12:33:17;;;;;;;6.60;5.65;;;37.60;99.90;;;;;;5051808;28;20441;-60
2023/06/21 12:35:44;;;;;;;7.10;5.35;;;37.50;99.90;;;;;;5052652;28;20074;-60
2023/06/21 12:38:17;;;;;;;7.22;6.03;;;38.50;99.90;;;;;;5049979;28;20438;-60
2023/06/21 12:41:00;;;;;;;6.35;5.68;;;38.00;99.90;;;;;;5049320;28;20482;-60
2023/06/21 12:43:41;;;;;;;6.70;5.80;;;38.40;99.90;;;;;;5048233;28;20033;-60
2023/06/21 12:46:08;;;;;;;7.00;5.40;;;38.80;99.90;;;;;;5049578;28;20076;-61
2023/06/21 12:48:35;;;;;;;7.40;5.95;;;39.00;99.90;;;;;;5050175;28;20387;-60